createdAt,value
2022-09-26T00:01:33.568Z,2.83
2022-09-26T00:04:03.488Z,2.10
2022-09-26T00:06:30.324Z,2.63
2022-09-26T00:08:57.652Z,2.30
2022-09-26T00:11:28.566Z,2.27
2022-09-26T00:13:58.463Z,2.60
2022-09-26T00:16:25.628Z,6.67
2022-09-26T00:18:54.104Z,2.33
2022-09-26T00:21:21.508Z,2.70
2022-09-26T00:23:48.536Z,2.80
2022-09-26T00:26:17.243Z,3.00
2022-09-26T00:28:44.021Z,2.83
2022-09-26T00:31:13.417Z,2.90
2022-09-26T00:33:40.496Z,2.90
2022-09-26T00:36:08.807Z,2.33
2022-09-26T00:38:35.741Z,2.23
2022-09-26T00:41:02.949Z,2.70
2022-09-26T00:43:34.579Z,3.00
2022-09-26T00:46:32.266Z,2.73
2022-09-26T00:49:28.030Z,2.73
2022-09-26T00:52:09.244Z,2.90
2022-09-26T00:54:38.506Z,3.07
2022-09-26T00:57:12.137Z,2.70
2022-09-26T00:59:44.966Z,2.80
2022-09-26T01:02:11.788Z,2.80
2022-09-26T01:04:40.446Z,2.67
2022-09-26T01:07:11.848Z,3.60
2022-09-26T01:09:39.368Z,3.10
2022-09-26T01:12:08.460Z,2.63
2022-09-26T01:14:37.605Z,2.77
2022-09-26T01:17:05.022Z,2.83
2022-09-26T01:19:53.370Z,3.00
2022-09-26T01:22:47.364Z,3.17
2022-09-26T01:25:32.939Z,3.37
2022-09-26T01:28:08.747Z,2.77
2022-09-26T01:30:49.180Z,3.20
2022-09-26T01:33:41.811Z,3.30
2022-09-26T01:36:11.533Z,3.03
2022-09-26T01:38:55.698Z,2.93
2022-09-26T01:41:34.010Z,3.27
2022-09-26T01:44:16.137Z,2.83
2022-09-26T01:46:55.587Z,2.87
2022-09-26T01:49:40.971Z,3.07
2022-09-26T01:52:48.253Z,3.00
2022-09-26T01:55:35.754Z,3.17
2022-09-26T01:58:15.956Z,2.70
2022-09-26T02:00:45.703Z,3.40
2022-09-26T02:03:18.602Z,2.90
2022-09-26T02:06:00.964Z,3.07
2022-09-26T02:08:42.067Z,2.60
2022-09-26T02:11:17.129Z,2.60
2022-09-26T02:14:06.089Z,2.63
2022-09-26T02:16:43.116Z,2.50
2022-09-26T02:19:24.121Z,3.00
2022-09-26T02:21:51.417Z,2.77
2022-09-26T02:24:18.701Z,2.53
2022-09-26T02:26:45.847Z,2.43
2022-09-26T02:29:13.752Z,2.60
2022-09-26T02:31:51.671Z,2.47
2022-09-26T02:34:19.054Z,2.93
2022-09-26T02:36:46.258Z,3.13
2022-09-26T02:39:13.438Z,2.60
2022-09-26T02:42:23.312Z,3.33
2022-09-26T02:45:03.409Z,2.53
2022-09-26T02:47:34.625Z,2.40
2022-09-26T02:50:29.864Z,2.73
2022-09-26T02:53:10.144Z,2.47
2022-09-26T02:56:09.299Z,2.53
2022-09-26T02:58:42.373Z,2.40
2022-09-26T03:01:17.677Z,2.30
2022-09-26T03:04:08.332Z,2.27
2022-09-26T03:06:39.537Z,2.50
2022-09-26T03:09:08.357Z,2.50
2022-09-26T03:11:35.849Z,2.13
2022-09-26T03:14:04.027Z,2.20
2022-09-26T03:16:35.732Z,2.20
2022-09-26T03:19:16.411Z,2.80
2022-09-26T03:21:45.170Z,2.40
2022-09-26T03:24:13.315Z,2.60
2022-09-26T03:26:41.913Z,2.60
2022-09-26T03:29:08.734Z,2.00
2022-09-26T03:31:36.394Z,2.30
2022-09-26T03:34:10.023Z,2.33
2022-09-26T03:36:39.705Z,2.33
2022-09-26T03:39:08.279Z,2.77
2022-09-26T03:41:46.854Z,2.60
2022-09-26T03:44:18.858Z,2.67
2022-09-26T03:47:04.409Z,2.50
2022-09-26T03:49:33.852Z,2.40
2022-09-26T03:52:00.764Z,2.10
2022-09-26T03:54:27.724Z,2.70
2022-09-26T03:56:55.473Z,2.43
2022-09-26T03:59:22.291Z,2.27
2022-09-26T04:01:50.836Z,2.80
2022-09-26T04:04:17.640Z,2.50
2022-09-26T04:06:44.910Z,2.30
2022-09-26T04:09:16.850Z,2.50
2022-09-26T04:11:47.516Z,3.90
2022-09-26T04:14:14.273Z,2.27
2022-09-26T04:16:42.992Z,2.43
2022-09-26T04:19:22.802Z,2.67
2022-09-26T04:21:50.826Z,2.90
2022-09-26T04:24:19.732Z,2.93
2022-09-26T04:26:46.974Z,2.43
2022-09-26T04:29:15.059Z,2.80
2022-09-26T04:32:05.846Z,2.53
2022-09-26T04:34:43.913Z,2.30
2022-09-26T04:37:11.957Z,2.60
2022-09-26T04:39:38.571Z,2.60
2022-09-26T04:42:05.276Z,2.57
2022-09-26T04:44:32.662Z,2.67
2022-09-26T04:46:59.405Z,2.47
2022-09-26T04:49:41.034Z,2.70
2022-09-26T04:52:07.695Z,2.30
2022-09-26T04:54:37.300Z,2.50
2022-09-26T04:57:04.624Z,2.70
2022-09-26T04:59:31.367Z,2.50
2022-09-26T05:02:05.270Z,2.50
2022-09-26T05:04:39.801Z,2.17
2022-09-26T05:07:06.630Z,2.50
2022-09-26T05:09:36.085Z,2.50
2022-09-26T05:12:06.790Z,2.47
2022-09-26T05:14:35.663Z,2.00
2022-09-26T05:17:03.800Z,2.30
2022-09-26T05:19:30.796Z,2.40
2022-09-26T05:22:20.096Z,2.17
2022-09-26T05:25:06.061Z,2.23
2022-09-26T05:27:32.720Z,2.13
2022-09-26T05:29:59.899Z,2.17
2022-09-26T05:32:29.197Z,2.10
2022-09-26T05:34:56.957Z,2.50
2022-09-26T05:37:25.027Z,2.23
2022-09-26T05:40:10.408Z,1.90
2022-09-26T05:42:41.689Z,2.43
2022-09-26T05:45:09.328Z,2.20
2022-09-26T05:47:36.611Z,2.13
2022-09-26T05:50:09.921Z,2.53
2022-09-26T05:52:39.151Z,2.27
2022-09-26T05:55:07.395Z,2.17
2022-09-26T05:57:54.709Z,2.40
2022-09-26T06:00:25.744Z,2.00
2022-09-26T06:03:02.740Z,2.03
2022-09-26T06:05:38.643Z,2.00
2022-09-26T06:08:12.232Z,2.17
2022-09-26T06:10:43.725Z,2.20
2022-09-26T06:13:10.385Z,2.23
2022-09-26T06:15:43.189Z,2.10
2022-09-26T06:18:09.813Z,2.10
2022-09-26T06:20:36.491Z,2.60
2022-09-26T06:23:04.188Z,2.17
2022-09-26T06:25:31.992Z,2.40
2022-09-26T06:28:01.321Z,2.40
2022-09-26T06:30:29.828Z,2.50
2022-09-26T06:33:08.220Z,2.07
2022-09-26T06:36:13.450Z,2.43
2022-09-26T06:38:40.051Z,2.60
2022-09-26T06:41:16.356Z,2.80
2022-09-26T06:43:44.936Z,2.70
2022-09-26T06:46:47.078Z,2.50
2022-09-26T06:49:16.959Z,2.67
2022-09-26T06:51:48.918Z,1.90
2022-09-26T06:54:17.178Z,2.47
2022-09-26T06:56:43.816Z,2.40
2022-09-26T06:59:10.823Z,2.40
2022-09-26T07:01:47.812Z,2.30
2022-09-26T07:04:33.516Z,2.50
2022-09-26T07:07:17.000Z,2.43
2022-09-26T07:09:43.705Z,2.50
2022-09-26T07:12:18.901Z,2.83
2022-09-26T07:14:48.941Z,2.23
2022-09-26T07:17:23.366Z,2.60
2022-09-26T07:20:11.129Z,2.37
2022-09-26T07:23:01.933Z,2.53
2022-09-26T07:25:31.176Z,2.17
2022-09-26T07:28:00.313Z,2.00
2022-09-26T07:30:42.880Z,2.10
2022-09-26T07:33:19.076Z,2.03
2022-09-26T07:35:48.829Z,1.77
2022-09-26T07:38:15.710Z,2.20
2022-09-26T07:40:43.264Z,2.37
2022-09-26T07:43:19.991Z,2.60
2022-09-26T07:46:10.187Z,1.90
2022-09-26T07:48:56.967Z,2.47
2022-09-26T07:51:42.313Z,2.30
2022-09-26T07:54:13.412Z,2.30
2022-09-26T07:56:55.112Z,3.00
2022-09-26T07:59:54.185Z,3.10
2022-09-26T08:02:42.663Z,2.90
2022-09-26T08:05:11.655Z,3.27
2022-09-26T08:07:38.635Z,3.10
2022-09-26T08:10:22.040Z,3.67
2022-09-26T08:13:07.760Z,3.43
2022-09-26T08:15:42.502Z,3.10
2022-09-26T08:18:14.417Z,3.70
2022-09-26T08:20:43.801Z,3.17
2022-09-26T08:23:10.967Z,4.03
2022-09-26T08:25:37.690Z,4.10
2022-09-26T08:28:18.151Z,3.80
2022-09-26T08:30:45.207Z,4.10
2022-09-26T08:33:12.530Z,4.53
2022-09-26T08:35:39.640Z,4.40
2022-09-26T08:38:20.432Z,4.50
2022-09-26T08:41:35.077Z,4.27
2022-09-26T08:44:28.152Z,4.73
2022-09-26T08:47:43.595Z,4.43
2022-09-26T08:51:29.826Z,4.30
2022-09-26T08:54:04.688Z,4.20
2022-09-26T08:56:36.815Z,4.60
2022-09-26T08:59:06.342Z,4.20
2022-09-26T09:01:39.336Z,4.47
2022-09-26T09:04:20.458Z,4.17
2022-09-26T09:06:48.532Z,5.07
2022-09-26T09:09:16.864Z,4.77
2022-09-26T09:12:14.327Z,4.20
2022-09-26T09:15:02.370Z,4.37
2022-09-26T09:18:15.508Z,4.47
2022-09-26T09:21:27.265Z,4.03
2022-09-26T09:24:18.053Z,4.20
2022-09-26T09:30:43.487Z,4.70
2022-09-26T09:33:33.670Z,4.37
2022-09-26T09:36:32.313Z,4.10
2022-09-26T09:39:35.388Z,4.00
2022-09-26T09:42:36.084Z,3.87
2022-09-26T09:45:09.304Z,3.77
2022-09-26T09:47:39.155Z,3.90
2022-09-26T09:50:27.361Z,3.17
2022-09-26T09:53:06.187Z,4.10
2022-09-26T09:55:55.754Z,3.37
2022-09-26T09:58:34.411Z,3.00
2022-09-26T10:01:11.613Z,3.70
2022-09-26T10:03:41.874Z,4.77
2022-09-26T10:06:45.342Z,4.00
2022-09-26T10:09:36.067Z,3.20
2022-09-26T10:12:16.869Z,3.33
2022-09-26T10:15:19.479Z,3.03
2022-09-26T10:18:24.270Z,3.10
2022-09-26T10:21:16.151Z,2.97
2022-09-26T10:23:46.633Z,2.70
2022-09-26T10:26:35.098Z,3.20
2022-09-26T10:29:25.329Z,3.23
2022-09-26T10:31:57.180Z,2.93
2022-09-26T10:34:31.107Z,2.87
2022-09-26T10:37:20.142Z,3.10
2022-09-26T10:40:13.684Z,2.63
2022-09-26T10:42:41.450Z,2.90
2022-09-26T10:45:15.791Z,2.50
2022-09-26T10:48:21.887Z,2.73
2022-09-26T10:51:32.204Z,2.53
2022-09-26T10:54:07.756Z,2.40
2022-09-26T10:56:40.556Z,2.40
2022-09-26T10:59:10.586Z,2.47
2022-09-26T11:01:44.047Z,2.60
2022-09-26T11:04:35.817Z,2.73
2022-09-26T11:07:35.968Z,2.67
2022-09-26T11:10:34.249Z,2.50
2022-09-26T11:13:17.088Z,3.13
2022-09-26T11:15:53.942Z,2.60
2022-09-26T11:18:42.468Z,2.53
2022-09-26T11:21:28.272Z,3.17
2022-09-26T11:24:11.587Z,2.50
2022-09-26T11:27:04.355Z,2.60
2022-09-26T11:29:53.114Z,2.77
2022-09-26T11:32:40.874Z,2.50
2022-09-26T11:35:48.222Z,2.83
2022-09-26T11:38:39.032Z,3.23
2022-09-26T11:41:39.367Z,2.80
2022-09-26T11:44:31.301Z,2.97
2022-09-26T11:47:38.364Z,3.10
2022-09-26T11:51:02.338Z,3.00
2022-09-26T11:54:06.606Z,2.90
2022-09-26T11:56:48.460Z,3.43
2022-09-26T11:59:27.962Z,3.40
2022-09-26T12:02:22.482Z,3.37
2022-09-26T12:05:11.263Z,2.93
2022-09-26T12:07:43.516Z,2.93
2022-09-26T12:10:31.149Z,3.20
2022-09-26T12:13:12.039Z,3.90
2022-09-26T12:16:05.121Z,3.97
2022-09-26T12:18:46.926Z,3.30
2022-09-26T12:22:02.663Z,2.97
2022-09-26T12:24:39.951Z,2.63
2022-09-26T12:27:25.532Z,3.10
2022-09-26T12:30:11.066Z,2.93
2022-09-26T12:32:43.593Z,2.80
2022-09-26T12:35:44.551Z,2.90
2022-09-26T12:38:32.763Z,2.20
2022-09-26T12:41:10.726Z,2.47
2022-09-26T12:44:08.417Z,2.30
2022-09-26T12:46:44.821Z,2.30
2022-09-26T12:49:58.136Z,2.20
2022-09-26T12:52:57.478Z,2.03
2022-09-26T12:55:24.225Z,2.40
2022-09-26T12:58:03.585Z,2.30
2022-09-26T13:01:03.415Z,2.60
2022-09-26T13:03:48.498Z,2.73
2022-09-26T13:07:17.333Z,2.53
2022-09-26T13:09:56.570Z,2.50
2022-09-26T13:12:42.399Z,2.70
2022-09-26T13:15:20.753Z,2.50
2022-09-26T13:17:59.058Z,2.90
2022-09-26T13:20:36.477Z,2.63
2022-09-26T13:23:07.672Z,2.80
2022-09-26T13:25:52.180Z,2.83
2022-09-26T13:28:38.108Z,2.83
2022-09-26T13:31:22.930Z,2.73
2022-09-26T13:34:03.986Z,2.50
2022-09-26T13:36:33.830Z,2.50
2022-09-26T13:39:13.197Z,2.57
2022-09-26T13:42:01.274Z,2.60
2022-09-26T13:44:51.420Z,2.47
2022-09-26T13:47:41.382Z,2.50
2022-09-26T13:50:40.467Z,2.30
2022-09-26T13:53:15.074Z,2.40
2022-09-26T13:55:43.383Z,2.50
2022-09-26T13:58:25.680Z,2.63
2022-09-26T14:00:57.527Z,2.33
2022-09-26T14:03:24.210Z,2.30
2022-09-26T14:06:06.351Z,2.20
2022-09-26T14:08:53.891Z,2.40
2022-09-26T14:11:32.619Z,2.20
2022-09-26T14:14:17.788Z,2.57
2022-09-26T14:16:46.576Z,2.30
2022-09-26T14:19:19.564Z,2.53
2022-09-26T14:22:02.585Z,2.53
2022-09-26T14:24:33.706Z,2.60
2022-09-26T14:27:24.453Z,3.20
2022-09-26T14:29:52.947Z,2.93
2022-09-26T14:32:42.225Z,3.23
2022-09-26T14:35:26.521Z,3.67
2022-09-26T14:38:00.688Z,3.50
2022-09-26T14:40:36.316Z,3.47
2022-09-26T14:43:24.500Z,3.53
2022-09-26T14:46:16.736Z,3.50
2022-09-26T14:48:44.882Z,3.63
2022-09-26T14:51:11.510Z,4.30
2022-09-26T14:53:49.730Z,4.10
2022-09-26T14:56:32.552Z,4.20
2022-09-26T14:59:24.159Z,4.07
2022-09-26T15:02:13.444Z,3.33
2022-09-26T15:04:43.419Z,2.97
2022-09-26T15:07:25.086Z,2.80
2022-09-26T15:10:04.839Z,2.93
2022-09-26T15:12:43.621Z,2.20
2022-09-26T15:15:33.588Z,2.40
2022-09-26T15:18:25.477Z,2.33
2022-09-26T15:21:01.803Z,2.40
2022-09-26T15:23:34.363Z,2.23
2022-09-26T15:26:05.249Z,2.10
2022-09-26T15:28:34.651Z,2.43
2022-09-26T15:31:22.726Z,2.70
2022-09-26T15:34:04.327Z,2.63
2022-09-26T15:36:33.974Z,2.20
2022-09-26T15:39:02.086Z,2.60
2022-09-26T15:41:47.473Z,2.10
2022-09-26T15:44:25.487Z,2.30
2022-09-26T15:46:52.180Z,2.60
2022-09-26T15:49:21.208Z,2.43
2022-09-26T15:51:54.266Z,2.30
2022-09-26T15:54:29.462Z,2.10
2022-09-26T15:57:01.658Z,2.17
2022-09-26T15:59:39.989Z,1.80
2022-09-26T16:02:23.773Z,2.57
2022-09-26T16:04:52.777Z,2.30
2022-09-26T16:07:23.513Z,2.23
2022-09-26T16:09:51.431Z,3.47
2022-09-26T16:12:22.279Z,2.70
2022-09-26T16:15:13.956Z,1.83
2022-09-26T16:17:49.119Z,2.20
2022-09-26T16:20:16.004Z,1.93
2022-09-26T16:22:54.646Z,2.90
2022-09-26T16:25:25.861Z,2.20
2022-09-26T16:28:18.919Z,2.53
2022-09-26T16:31:08.262Z,1.90
2022-09-26T16:33:38.611Z,1.53
2022-09-26T16:36:11.768Z,2.90
2022-09-26T16:38:38.588Z,4.00
2022-09-26T16:41:59.501Z,2.13
2022-09-26T16:44:28.765Z,2.30
2022-09-26T16:46:58.698Z,2.50
2022-09-26T16:49:46.712Z,1.80
2022-09-26T16:52:35.287Z,2.03
2022-09-26T16:55:06.041Z,2.00
2022-09-26T16:57:36.986Z,1.80
2022-09-26T17:00:37.164Z,1.70
2022-09-26T17:03:16.828Z,1.57
2022-09-26T17:05:43.431Z,1.60
2022-09-26T17:08:10.908Z,1.90
2022-09-26T17:10:38.143Z,2.50
2022-09-26T17:13:05.958Z,2.37
2022-09-26T17:15:34.664Z,2.00
2022-09-26T17:18:05.356Z,1.70
2022-09-26T17:20:31.992Z,1.90
2022-09-26T17:23:11.935Z,1.93
2022-09-26T17:25:48.079Z,1.90
2022-09-26T17:28:19.205Z,2.50
2022-09-26T17:30:46.282Z,2.00
2022-09-26T17:33:12.916Z,2.20
2022-09-26T17:35:40.886Z,3.03
2022-09-26T17:38:11.793Z,1.53
2022-09-26T17:40:38.997Z,2.73
2022-09-26T17:43:06.456Z,1.70
2022-09-26T17:45:35.733Z,1.90
2022-09-26T17:48:06.788Z,1.70
2022-09-26T17:50:35.350Z,1.90
2022-09-26T17:53:03.279Z,1.77
2022-09-26T17:55:30.996Z,1.80
2022-09-26T17:57:58.279Z,1.90
2022-09-26T18:00:25.483Z,1.70
2022-09-26T18:02:57.185Z,2.00
2022-09-26T18:05:28.392Z,1.90
2022-09-26T18:07:58.430Z,1.70
2022-09-26T18:10:31.076Z,1.80
2022-09-26T18:13:05.695Z,2.10
2022-09-26T18:15:35.481Z,1.90
2022-09-26T18:18:02.126Z,1.70
2022-09-26T18:20:37.050Z,1.90
2022-09-26T18:23:06.523Z,1.70
2022-09-26T18:25:37.055Z,1.90
2022-09-26T18:28:11.936Z,1.83
2022-09-26T18:30:41.544Z,1.80
2022-09-26T18:33:10.465Z,1.70
2022-09-26T18:35:37.361Z,2.00
2022-09-26T18:38:03.986Z,1.77
2022-09-26T18:40:30.717Z,1.80
2022-09-26T18:42:58.222Z,1.90
2022-09-26T18:45:28.827Z,2.40
2022-09-26T18:47:55.902Z,1.90
2022-09-26T18:50:34.150Z,2.13
2022-09-26T18:53:00.855Z,2.40
2022-09-26T18:55:46.427Z,2.20
2022-09-26T18:58:25.229Z,2.00
2022-09-26T19:01:13.661Z,2.00
2022-09-26T19:03:44.570Z,2.20
2022-09-26T19:06:18.825Z,1.90
2022-09-26T19:08:47.665Z,2.60
2022-09-26T19:11:20.407Z,2.17
2022-09-26T19:13:49.796Z,2.00
2022-09-26T19:16:16.984Z,2.00
2022-09-26T19:18:44.172Z,2.07
2022-09-26T19:21:25.361Z,2.30
2022-09-26T19:23:53.198Z,2.03
2022-09-26T19:26:31.404Z,1.70
2022-09-26T19:28:59.533Z,2.20
2022-09-26T19:31:26.901Z,1.90
2022-09-26T19:33:53.691Z,2.00
2022-09-26T19:36:20.980Z,2.27
2022-09-26T19:38:47.622Z,2.40
2022-09-26T19:41:14.301Z,1.97
2022-09-26T19:43:40.922Z,2.30
2022-09-26T19:46:13.199Z,2.00
2022-09-26T19:48:42.369Z,2.30
2022-09-26T19:51:13.999Z,2.43
2022-09-26T19:53:40.855Z,2.70
2022-09-26T19:56:07.527Z,2.47
2022-09-26T19:58:34.237Z,2.23
2022-09-26T20:01:09.493Z,2.33
2022-09-26T20:03:41.691Z,2.43
2022-09-26T20:06:19.369Z,2.07
2022-09-26T20:08:46.105Z,2.50
2022-09-26T20:11:13.445Z,2.47
2022-09-26T20:13:58.739Z,2.13
2022-09-26T20:16:25.473Z,2.57
2022-09-26T20:18:55.541Z,1.80
2022-09-26T20:21:29.482Z,1.77
2022-09-26T20:23:58.319Z,2.00
2022-09-26T20:26:25.224Z,2.40
2022-09-26T20:28:51.853Z,1.97
2022-09-26T20:31:27.324Z,2.67
2022-09-26T20:33:56.831Z,1.80
2022-09-26T20:36:32.403Z,2.10
2022-09-26T20:39:02.623Z,2.67
2022-09-26T20:41:35.363Z,1.80
2022-09-26T20:44:07.118Z,1.90
2022-09-26T20:46:38.645Z,2.00
2022-09-26T20:49:11.279Z,2.37
2022-09-26T20:51:37.913Z,2.23
2022-09-26T20:54:06.455Z,2.23
2022-09-26T20:56:33.232Z,2.20
2022-09-26T20:58:59.820Z,2.03
2022-09-26T21:01:28.342Z,2.10
2022-09-26T21:03:55.808Z,2.50
2022-09-26T21:06:26.649Z,1.90
2022-09-26T21:08:53.252Z,1.90
2022-09-26T21:11:21.047Z,1.90
2022-09-26T21:13:47.931Z,2.30
2022-09-26T21:16:16.778Z,2.17
2022-09-26T21:18:45.303Z,1.90
2022-09-26T21:21:24.881Z,1.83
2022-09-26T21:24:15.516Z,2.00
2022-09-26T21:26:42.067Z,2.07
2022-09-26T21:29:16.580Z,2.23
2022-09-26T21:31:48.403Z,2.20
2022-09-26T21:34:20.401Z,1.60
2022-09-26T21:36:48.119Z,2.00
2022-09-26T21:39:18.110Z,1.80
2022-09-26T21:41:50.686Z,2.10
2022-09-26T21:44:58.244Z,2.43
2022-09-26T21:47:24.979Z,1.80
2022-09-26T21:49:51.729Z,2.17
2022-09-26T21:52:33.940Z,2.10
2022-09-26T21:55:02.004Z,2.10
2022-09-26T21:57:37.657Z,2.40
2022-09-26T22:00:09.107Z,2.30
2022-09-26T22:02:41.457Z,2.40
2022-09-26T22:05:09.563Z,2.00
2022-09-26T22:07:37.831Z,1.93
2022-09-26T22:10:05.932Z,1.97
2022-09-26T22:12:32.572Z,2.07
2022-09-26T22:14:59.292Z,2.37
2022-09-26T22:17:26.873Z,2.07
2022-09-26T22:19:53.459Z,2.10
2022-09-26T22:22:20.317Z,2.10
2022-09-26T22:24:46.923Z,2.30
2022-09-26T22:27:13.617Z,2.10
2022-09-26T22:29:40.220Z,1.90
2022-09-26T22:32:06.868Z,1.90
2022-09-26T22:34:33.479Z,1.83
2022-09-26T22:37:00.069Z,1.93
2022-09-26T22:39:26.684Z,2.07
2022-09-26T22:41:53.309Z,1.97
2022-09-26T22:44:19.938Z,2.00
2022-09-26T22:46:46.548Z,2.20
2022-09-26T22:49:13.173Z,2.17
2022-09-26T22:51:39.770Z,1.97
2022-09-26T22:54:06.368Z,2.20
2022-09-26T22:56:32.950Z,1.90
2022-09-26T22:58:59.567Z,1.87
2022-09-26T23:01:27.828Z,3.03
2022-09-26T23:03:54.645Z,1.80
2022-09-26T23:06:22.184Z,2.03
2022-09-26T23:08:48.896Z,2.20
2022-09-26T23:11:17.105Z,1.97
2022-09-26T23:13:44.642Z,2.20
2022-09-26T23:16:20.511Z,2.10
2022-09-26T23:18:48.055Z,2.23
2022-09-26T23:21:17.176Z,2.00
2022-09-26T23:23:45.939Z,1.90
2022-09-26T23:26:20.460Z,1.73
2022-09-26T23:28:47.131Z,2.30
2022-09-26T23:31:14.181Z,2.10
2022-09-26T23:33:41.092Z,2.20
2022-09-26T23:36:11.307Z,2.53
2022-09-26T23:38:39.596Z,2.00
2022-09-26T23:41:09.168Z,2.20
2022-09-26T23:43:35.955Z,1.90
2022-09-26T23:46:02.937Z,2.00
2022-09-26T23:48:29.512Z,1.80
2022-09-26T23:50:56.401Z,1.60
2022-09-26T23:53:23.083Z,1.93
2022-09-26T23:55:49.953Z,1.97
2022-09-26T23:58:19.061Z,1.93
